createdAt,value
2022-12-18T00:02:13.951Z,84.92
2022-12-18T00:04:48.327Z,85.37
2022-12-18T00:07:22.922Z,85.08
2022-12-18T00:09:57.465Z,85.29
2022-12-18T00:12:32.457Z,85.14
2022-12-18T00:15:09.374Z,85.00
2022-12-18T00:17:43.804Z,83.62
2022-12-18T00:20:22.798Z,83.48
2022-12-18T00:22:57.129Z,82.38
2022-12-18T00:25:31.538Z,82.58
2022-12-18T00:28:06.297Z,83.11
2022-12-18T00:30:42.322Z,82.02
2022-12-18T00:33:16.432Z,83.62
2022-12-18T00:35:50.836Z,82.74
2022-12-18T00:38:25.092Z,83.21
2022-12-18T00:40:59.616Z,83.27
2022-12-18T00:43:37.135Z,82.96
2022-12-18T00:46:13.239Z,83.33
2022-12-18T00:48:47.535Z,83.05
2022-12-18T00:51:21.942Z,83.50
2022-12-18T00:53:56.119Z,83.19
2022-12-18T00:56:30.658Z,82.85
2022-12-18T00:59:04.926Z,83.57
2022-12-18T01:01:41.304Z,83.70
2022-12-18T01:04:16.758Z,83.59
2022-12-18T01:06:52.922Z,84.62
2022-12-18T01:09:27.234Z,84.72
2022-12-18T01:12:01.609Z,84.36
2022-12-18T01:14:35.715Z,84.37
2022-12-18T01:17:11.573Z,84.04
2022-12-18T01:19:45.975Z,83.00
2022-12-18T01:22:20.426Z,83.51
2022-12-18T01:24:54.579Z,82.64
2022-12-18T01:27:29.425Z,83.53
2022-12-18T01:30:04.584Z,82.99
2022-12-18T01:32:40.316Z,82.92
2022-12-18T01:35:14.374Z,83.05
2022-12-18T01:37:48.901Z,82.29
2022-12-18T01:40:23.226Z,80.76
2022-12-18T01:42:59.028Z,80.64
2022-12-18T01:45:34.511Z,81.34
2022-12-18T01:48:11.345Z,82.16
2022-12-18T01:50:45.692Z,82.19
2022-12-18T01:53:23.541Z,82.59
2022-12-18T01:55:59.726Z,84.00
2022-12-18T01:58:42.490Z,83.67
2022-12-18T02:01:16.944Z,83.12
2022-12-18T02:03:53.585Z,83.68
2022-12-18T02:06:35.472Z,82.84
2022-12-18T02:09:16.002Z,83.27
2022-12-18T02:11:58.605Z,83.31
2022-12-18T02:14:41.277Z,83.53
2022-12-18T02:17:21.014Z,82.96
2022-12-18T02:20:09.019Z,83.52
2022-12-18T02:22:57.481Z,85.10
2022-12-18T02:25:56.575Z,85.21
2022-12-18T02:28:36.784Z,84.60
2022-12-18T02:31:15.593Z,82.68
2022-12-18T02:33:52.057Z,83.42
2022-12-18T02:36:27.819Z,83.56
2022-12-18T02:39:04.598Z,81.59
2022-12-18T02:41:40.125Z,81.95
2022-12-18T02:44:17.114Z,82.49
2022-12-18T02:46:53.980Z,83.87
2022-12-18T02:49:37.473Z,85.40
2022-12-18T02:52:22.074Z,84.58
2022-12-18T02:55:02.430Z,83.95
2022-12-18T02:57:44.418Z,85.40
2022-12-18T03:00:24.419Z,84.54
2022-12-18T03:03:03.803Z,83.60
2022-12-18T03:05:42.727Z,84.13
2022-12-18T03:08:21.580Z,83.88
2022-12-18T03:11:02.030Z,84.38
2022-12-18T03:13:40.584Z,83.01
2022-12-18T03:16:24.954Z,81.64
2022-12-18T03:19:03.112Z,80.90
2022-12-18T03:21:43.833Z,82.11
2022-12-18T03:24:19.483Z,83.41
2022-12-18T03:26:59.366Z,83.51
2022-12-18T03:29:38.243Z,84.24
2022-12-18T03:32:21.748Z,84.63
2022-12-18T03:35:00.706Z,85.44
2022-12-18T03:37:37.792Z,85.71
2022-12-18T03:40:12.983Z,85.56
2022-12-18T03:42:53.800Z,85.10
2022-12-18T03:45:35.490Z,84.72
2022-12-18T03:48:18.423Z,84.07
2022-12-18T03:50:59.939Z,81.59
2022-12-18T03:53:41.944Z,81.74
2022-12-18T03:56:18.611Z,82.95
2022-12-18T03:58:54.958Z,84.62
2022-12-18T04:01:35.251Z,84.87
2022-12-18T04:04:13.303Z,84.70
2022-12-18T04:06:50.378Z,84.43
2022-12-18T04:09:25.744Z,84.98
2022-12-18T04:12:00.402Z,83.70
2022-12-18T04:14:36.761Z,84.03
2022-12-18T04:17:11.424Z,83.12
2022-12-18T04:19:47.326Z,82.31
2022-12-18T04:22:21.513Z,81.28
2022-12-18T04:25:03.174Z,80.02
2022-12-18T04:27:37.768Z,79.93
2022-12-18T04:30:13.793Z,81.72
2022-12-18T04:32:52.202Z,83.20
2022-12-18T04:35:28.568Z,84.27
2022-12-18T04:38:03.121Z,84.68
2022-12-18T04:40:37.937Z,86.10
2022-12-18T04:43:12.419Z,86.26
2022-12-18T04:45:47.462Z,85.76
2022-12-18T04:48:22.477Z,85.08
2022-12-18T04:50:58.643Z,84.03
2022-12-18T04:53:32.794Z,83.74
2022-12-18T04:56:09.208Z,81.89
2022-12-18T04:58:45.763Z,81.99
2022-12-18T05:01:20.921Z,82.70
2022-12-18T05:03:55.269Z,83.07
2022-12-18T05:06:31.186Z,84.19
2022-12-18T05:09:05.713Z,83.76
2022-12-18T05:11:40.384Z,83.08
2022-12-18T05:14:14.537Z,83.78
2022-12-18T05:16:49.109Z,83.19
2022-12-18T05:19:23.456Z,81.74
2022-12-18T05:21:59.217Z,83.04
2022-12-18T05:24:33.681Z,84.24
2022-12-18T05:27:08.162Z,84.08
2022-12-18T05:29:44.378Z,84.33
2022-12-18T05:32:18.843Z,83.29
2022-12-18T05:34:53.061Z,82.70
2022-12-18T05:37:28.987Z,82.83
2022-12-18T05:40:04.189Z,82.76
2022-12-18T05:42:38.600Z,82.44
2022-12-18T05:45:12.849Z,82.34
2022-12-18T05:47:47.359Z,83.62
2022-12-18T05:50:22.726Z,84.37
2022-12-18T05:52:58.608Z,82.93
2022-12-18T05:55:35.826Z,81.46
2022-12-18T05:58:12.324Z,81.66
2022-12-18T06:00:48.179Z,82.56
2022-12-18T06:03:22.883Z,82.58
2022-12-18T06:05:57.013Z,83.74
2022-12-18T06:08:32.948Z,82.68
2022-12-18T06:11:07.469Z,82.14
2022-12-18T06:13:42.117Z,80.55
2022-12-18T06:16:16.588Z,81.38
2022-12-18T06:18:51.395Z,81.64
2022-12-18T06:21:25.778Z,81.51
2022-12-18T06:24:02.236Z,82.54
2022-12-18T06:26:38.677Z,82.11
2022-12-18T06:29:13.129Z,80.84
2022-12-18T06:31:47.348Z,80.74
2022-12-18T06:34:21.885Z,81.92
2022-12-18T06:36:55.934Z,82.52
2022-12-18T06:39:32.466Z,84.03
2022-12-18T06:42:07.157Z,83.79
2022-12-18T06:44:41.917Z,99.41
2022-12-18T06:47:16.099Z,100.00
2022-12-18T06:49:51.626Z,100.00
2022-12-18T06:52:25.779Z,94.39
2022-12-18T06:55:01.651Z,90.37
2022-12-18T06:57:36.008Z,90.97
2022-12-18T07:00:11.421Z,88.39
2022-12-18T07:02:45.936Z,87.24
2022-12-18T07:05:20.494Z,87.53
2022-12-18T07:07:55.103Z,85.29
2022-12-18T07:10:30.975Z,85.06
2022-12-18T07:13:05.141Z,85.08
2022-12-18T07:15:39.638Z,83.87
2022-12-18T07:18:13.902Z,83.36
2022-12-18T07:20:49.013Z,84.31
2022-12-18T07:23:23.285Z,86.27
2022-12-18T07:26:03.271Z,86.86
2022-12-18T07:28:39.204Z,84.61
2022-12-18T07:31:16.201Z,83.77
2022-12-18T07:33:51.411Z,83.84
2022-12-18T07:36:26.142Z,85.25
2022-12-18T07:39:00.313Z,86.21
2022-12-18T07:41:42.499Z,84.13
2022-12-18T07:44:23.407Z,100.00
2022-12-18T07:46:57.875Z,100.00
2022-12-18T07:49:32.000Z,98.70
2022-12-18T07:52:07.719Z,92.17
2022-12-18T07:54:42.469Z,100.00
2022-12-18T07:57:48.869Z,100.00
2022-12-18T08:00:17.610Z,98.36
2022-12-18T08:02:52.324Z,89.97
2022-12-18T08:05:26.605Z,87.36
2022-12-18T08:08:01.115Z,86.44
2022-12-18T08:10:35.289Z,84.78
2022-12-18T08:13:11.519Z,84.43
2022-12-18T08:15:45.735Z,81.58
2022-12-18T08:18:20.165Z,80.79
2022-12-18T08:20:54.314Z,81.22
2022-12-18T08:23:29.015Z,82.54
2022-12-18T08:26:03.300Z,80.47
2022-12-18T08:28:39.232Z,80.23
2022-12-18T08:31:24.528Z,80.31
2022-12-18T08:33:59.905Z,80.98
2022-12-18T08:36:34.099Z,81.92
2022-12-18T08:39:08.542Z,80.89
2022-12-18T08:41:43.292Z,81.69
2022-12-18T08:44:36.709Z,80.87
2022-12-18T08:47:11.125Z,100.00
2022-12-18T08:49:45.864Z,87.14
2022-12-18T08:52:20.668Z,82.09
2022-12-18T08:54:55.040Z,78.04
2022-12-18T08:57:29.222Z,78.49
2022-12-18T09:00:05.814Z,79.92
2022-12-18T09:02:40.233Z,77.86
2022-12-18T09:05:15.015Z,77.13
2022-12-18T09:07:49.193Z,76.30
2022-12-18T09:10:24.010Z,76.30
2022-12-18T09:12:58.678Z,75.21
2022-12-18T09:15:34.535Z,76.60
2022-12-18T09:18:09.918Z,76.32
2022-12-18T09:20:44.742Z,75.76
2022-12-18T09:23:18.885Z,73.37
2022-12-18T09:25:53.360Z,74.00
2022-12-18T09:28:27.492Z,73.42
2022-12-18T09:31:10.790Z,73.30
2022-12-18T09:33:52.200Z,71.70
2022-12-18T09:36:26.716Z,71.36
2022-12-18T09:39:06.339Z,72.40
2022-12-18T09:41:47.928Z,70.96
2022-12-18T09:44:28.267Z,71.36
2022-12-18T09:47:12.440Z,71.33
2022-12-18T09:49:49.234Z,69.54
2022-12-18T09:52:29.362Z,69.91
2022-12-18T09:55:12.472Z,69.73
2022-12-18T09:57:53.697Z,70.06
2022-12-18T10:00:28.232Z,70.72
2022-12-18T10:03:12.374Z,71.88
2022-12-18T10:05:58.289Z,70.33
2022-12-18T10:08:44.222Z,68.35
2022-12-18T10:11:36.801Z,68.20
2022-12-18T10:14:22.761Z,70.48
2022-12-18T10:17:04.126Z,68.80
2022-12-18T10:19:50.331Z,68.06
2022-12-18T10:22:36.547Z,69.15
2022-12-18T10:25:21.469Z,68.24
2022-12-18T10:27:59.772Z,68.81
2022-12-18T10:30:34.233Z,68.91
2022-12-18T10:33:13.080Z,66.11
2022-12-18T10:35:53.546Z,66.23
2022-12-18T10:38:29.899Z,65.31
2022-12-18T10:41:06.484Z,66.55
2022-12-18T10:43:42.679Z,67.24
2022-12-18T10:46:21.442Z,67.43
2022-12-18T10:48:58.097Z,66.69
2022-12-18T10:51:36.909Z,68.17
2022-12-18T10:54:17.940Z,66.91
2022-12-18T10:56:52.649Z,66.85
2022-12-18T10:59:26.909Z,65.08
2022-12-18T11:02:01.459Z,67.10
2022-12-18T11:04:36.322Z,66.33
2022-12-18T11:07:12.321Z,65.70
2022-12-18T11:10:06.386Z,66.58
2022-12-18T11:12:41.989Z,64.51
2022-12-18T11:15:21.066Z,64.09
2022-12-18T11:17:55.935Z,64.00
2022-12-18T11:20:34.651Z,64.75
2022-12-18T11:23:15.455Z,64.66
2022-12-18T11:25:55.858Z,64.52
2022-12-18T11:28:38.616Z,63.99
2022-12-18T11:31:26.173Z,62.63
2022-12-18T11:34:28.073Z,64.55
2022-12-18T11:37:01.800Z,63.52
2022-12-18T11:39:42.823Z,62.63
2022-12-18T11:42:25.446Z,61.44
2022-12-18T11:45:03.213Z,62.41
2022-12-18T11:47:43.906Z,62.33
2022-12-18T11:50:21.406Z,62.74
2022-12-18T11:52:59.224Z,61.75
2022-12-18T11:55:50.461Z,61.97
2022-12-18T11:58:45.130Z,61.12
2022-12-18T12:01:43.855Z,60.82
2022-12-18T12:04:48.496Z,59.57
2022-12-18T12:07:39.278Z,59.24
2022-12-18T12:10:33.056Z,59.00
2022-12-18T12:13:36.504Z,58.46
2022-12-18T12:16:19.411Z,57.83
2022-12-18T12:19:06.200Z,56.21
2022-12-18T12:21:43.153Z,56.75
2022-12-18T12:24:39.487Z,55.23
2022-12-18T12:27:23.392Z,54.58
2022-12-18T12:30:08.700Z,55.63
2022-12-18T12:33:01.161Z,53.82
2022-12-18T12:35:46.634Z,54.99
2022-12-18T12:38:27.544Z,53.94
2022-12-18T12:41:05.531Z,54.45
2022-12-18T12:43:49.584Z,53.99
2022-12-18T12:46:28.789Z,52.83
2022-12-18T12:49:07.275Z,52.65
2022-12-18T12:51:45.586Z,52.04
2022-12-18T12:54:24.184Z,53.58
2022-12-18T12:57:08.077Z,52.11
2022-12-18T12:59:53.604Z,52.05
2022-12-18T13:02:35.741Z,53.34
2022-12-18T13:05:21.145Z,55.91
2022-12-18T13:08:04.938Z,55.53
2022-12-18T13:10:43.039Z,57.62
2022-12-18T13:13:20.616Z,60.17
2022-12-18T13:16:07.746Z,60.48
2022-12-18T13:18:51.373Z,61.41
2022-12-18T13:21:29.627Z,62.68
2022-12-18T13:24:18.147Z,62.60
2022-12-18T13:26:52.675Z,63.51
2022-12-18T13:29:47.634Z,64.47
2022-12-18T13:32:25.041Z,64.82
2022-12-18T13:35:43.062Z,66.56
2022-12-18T13:38:24.206Z,66.14
2022-12-18T13:40:58.984Z,66.91
2022-12-18T13:43:43.900Z,67.35
2022-12-18T13:46:28.021Z,67.58
2022-12-18T13:49:05.622Z,67.99
2022-12-18T13:51:44.485Z,68.30
2022-12-18T13:54:23.492Z,68.48
2022-12-18T13:56:57.724Z,68.58
2022-12-18T13:59:36.688Z,68.40
2022-12-18T14:02:17.332Z,68.21
2022-12-18T14:04:53.062Z,70.18
2022-12-18T14:07:35.923Z,69.66
2022-12-18T14:10:42.186Z,69.74
2022-12-18T14:13:17.949Z,70.47
2022-12-18T14:15:53.690Z,70.09
2022-12-18T14:18:39.121Z,69.67
2022-12-18T14:21:23.018Z,70.91
2022-12-18T14:24:19.506Z,70.91
2022-12-18T14:26:54.643Z,70.28
2022-12-18T14:29:30.442Z,70.72
2022-12-18T14:32:15.170Z,70.87
2022-12-18T14:34:53.263Z,71.72
2022-12-18T14:37:29.393Z,72.32
2022-12-18T14:40:11.289Z,72.13
2022-12-18T14:42:47.102Z,71.84
2022-12-18T14:45:45.418Z,72.42
2022-12-18T14:48:24.328Z,72.78
2022-12-18T14:51:04.073Z,73.37
2022-12-18T14:53:42.229Z,73.24
2022-12-18T14:56:22.162Z,74.03
2022-12-18T14:58:58.818Z,100.00
2022-12-18T15:01:35.530Z,100.00
2022-12-18T15:04:27.687Z,93.33
2022-12-18T15:07:17.221Z,87.00
2022-12-18T15:10:14.007Z,76.99
2022-12-18T15:12:51.993Z,74.31
2022-12-18T15:15:49.448Z,77.64
2022-12-18T15:18:34.525Z,76.55
2022-12-18T15:21:12.060Z,77.26
2022-12-18T15:23:49.811Z,77.92
2022-12-18T15:26:24.739Z,77.92
2022-12-18T15:29:01.037Z,78.07
2022-12-18T15:31:37.055Z,78.74
2022-12-18T15:34:16.127Z,77.87
2022-12-18T15:36:52.750Z,77.18
2022-12-18T15:39:27.343Z,78.34
2022-12-18T15:42:20.971Z,77.43
2022-12-18T15:44:56.830Z,77.22
2022-12-18T15:47:31.719Z,77.62
2022-12-18T15:50:07.304Z,77.72
2022-12-18T15:52:45.322Z,77.57
2022-12-18T15:55:39.523Z,77.60
2022-12-18T15:58:15.115Z,77.54
2022-12-18T16:00:52.327Z,94.17
2022-12-18T16:03:26.943Z,100.00
2022-12-18T16:06:03.214Z,100.00
2022-12-18T16:08:39.001Z,83.22
2022-12-18T16:11:38.983Z,79.75
2022-12-18T16:14:19.731Z,78.60
2022-12-18T16:16:57.221Z,78.32
2022-12-18T16:19:32.209Z,79.51
2022-12-18T16:22:07.077Z,79.50
2022-12-18T16:24:43.813Z,80.04
2022-12-18T16:27:18.222Z,79.75
2022-12-18T16:29:53.436Z,81.08
2022-12-18T16:32:29.197Z,81.53
2022-12-18T16:35:04.080Z,80.55
2022-12-18T16:37:38.573Z,80.30
2022-12-18T16:40:15.590Z,80.20
2022-12-18T16:42:49.850Z,79.47
2022-12-18T16:45:27.052Z,79.30
2022-12-18T16:48:02.984Z,79.06
2022-12-18T16:50:37.870Z,80.74
2022-12-18T16:53:12.284Z,80.67
2022-12-18T16:55:46.961Z,80.02
2022-12-18T16:58:21.571Z,79.03
2022-12-18T17:00:56.458Z,78.62
2022-12-18T17:03:32.330Z,79.10
2022-12-18T17:06:08.081Z,79.60
2022-12-18T17:08:42.523Z,79.86
2022-12-18T17:11:17.260Z,100.00
2022-12-18T17:13:54.966Z,90.90
2022-12-18T17:16:29.848Z,82.69
2022-12-18T17:19:05.909Z,81.27
2022-12-18T17:21:40.919Z,81.99
2022-12-18T17:24:16.031Z,81.36
2022-12-18T17:26:52.220Z,88.24
2022-12-18T17:29:26.733Z,100.00
2022-12-18T17:32:01.454Z,90.66
2022-12-18T17:34:37.809Z,83.54
2022-12-18T17:37:12.603Z,84.59
2022-12-18T17:39:47.706Z,82.21
2022-12-18T17:42:22.670Z,82.92
2022-12-18T17:44:57.049Z,81.51
2022-12-18T17:47:31.908Z,81.38
2022-12-18T17:50:11.406Z,81.82
2022-12-18T17:52:46.150Z,81.71
2022-12-18T17:55:20.440Z,80.92
2022-12-18T17:57:55.451Z,80.32
2022-12-18T18:00:30.354Z,81.69
2022-12-18T18:03:05.446Z,81.64
2022-12-18T18:05:41.462Z,81.17
2022-12-18T18:08:16.075Z,81.60
2022-12-18T18:10:51.583Z,81.72
2022-12-18T18:13:47.135Z,100.00
2022-12-18T18:16:22.076Z,95.88
2022-12-18T18:18:59.582Z,93.61
2022-12-18T18:21:38.993Z,88.68
2022-12-18T18:24:15.276Z,84.50
2022-12-18T18:26:49.838Z,82.74
2022-12-18T18:29:31.471Z,82.38
2022-12-18T18:32:06.533Z,81.94
2022-12-18T18:34:41.117Z,82.72
2022-12-18T18:37:17.226Z,82.37
2022-12-18T18:39:52.417Z,81.60
2022-12-18T18:42:29.054Z,83.09
2022-12-18T18:45:04.416Z,81.85
2022-12-18T18:47:38.904Z,81.76
2022-12-18T18:50:13.756Z,82.55
2022-12-18T18:52:49.756Z,100.00
2022-12-18T18:55:25.488Z,100.00
2022-12-18T18:58:00.336Z,89.52
2022-12-18T19:00:36.820Z,100.00
2022-12-18T19:03:12.460Z,95.05
2022-12-18T19:05:52.513Z,85.42
2022-12-18T19:08:30.991Z,82.25
2022-12-18T19:11:33.147Z,82.36
2022-12-18T19:14:11.214Z,83.02
2022-12-18T19:16:45.968Z,82.84
2022-12-18T19:19:21.138Z,82.52
2022-12-18T19:21:56.195Z,82.37
2022-12-18T19:24:32.217Z,82.07
2022-12-18T19:27:08.059Z,82.94
2022-12-18T19:29:42.441Z,83.32
2022-12-18T19:32:17.508Z,84.00
2022-12-18T19:34:51.966Z,82.63
2022-12-18T19:37:27.182Z,83.68
2022-12-18T19:40:06.667Z,83.29
2022-12-18T19:42:47.130Z,83.58
2022-12-18T19:45:22.102Z,82.56
2022-12-18T19:48:02.629Z,82.35
2022-12-18T19:50:42.454Z,81.71
2022-12-18T19:53:17.261Z,81.23
2022-12-18T19:55:53.118Z,81.50
2022-12-18T19:58:27.892Z,81.83
2022-12-18T20:01:05.782Z,82.48
2022-12-18T20:03:51.540Z,83.13
2022-12-18T20:06:29.555Z,83.36
2022-12-18T20:09:07.739Z,83.31
2022-12-18T20:11:43.395Z,83.75
2022-12-18T20:14:23.203Z,83.35
2022-12-18T20:16:58.231Z,83.00
2022-12-18T20:19:35.188Z,82.25
2022-12-18T20:22:09.631Z,81.24
2022-12-18T20:24:44.447Z,81.28
2022-12-18T20:27:22.119Z,82.30
2022-12-18T20:29:58.937Z,81.97
2022-12-18T20:32:37.051Z,81.73
2022-12-18T20:35:12.198Z,81.40
2022-12-18T20:37:50.398Z,80.89
2022-12-18T20:40:26.561Z,80.82
2022-12-18T20:43:02.462Z,80.77
2022-12-18T20:45:37.288Z,81.57
2022-12-18T20:48:14.516Z,82.29
2022-12-18T20:50:59.400Z,82.50
2022-12-18T20:53:38.565Z,82.58
2022-12-18T20:56:21.114Z,91.55
2022-12-18T20:59:00.597Z,100.00
2022-12-18T21:01:35.874Z,100.00
2022-12-18T21:04:11.634Z,100.00
2022-12-18T21:06:51.312Z,93.98
2022-12-18T21:09:27.322Z,96.15
2022-12-18T21:12:16.647Z,89.93
2022-12-18T21:14:52.506Z,88.34
2022-12-18T21:17:27.053Z,87.54
2022-12-18T21:20:03.038Z,88.21
2022-12-18T21:22:38.152Z,88.10
2022-12-18T21:25:12.336Z,87.30
2022-12-18T21:27:46.742Z,86.77
2022-12-18T21:30:22.550Z,86.08
2022-12-18T21:32:57.509Z,86.75
2022-12-18T21:35:32.129Z,85.68
2022-12-18T21:38:06.997Z,85.32
2022-12-18T21:40:41.315Z,84.13
2022-12-18T21:43:33.654Z,83.62
2022-12-18T21:46:09.339Z,84.22
2022-12-18T21:48:44.564Z,84.56
2022-12-18T21:51:19.052Z,83.95
2022-12-18T21:53:53.467Z,83.55
2022-12-18T21:56:44.723Z,83.49
2022-12-18T21:59:20.956Z,82.56
2022-12-18T22:01:58.637Z,82.13
2022-12-18T22:04:33.082Z,81.84
2022-12-18T22:07:07.905Z,81.64
2022-12-18T22:09:43.638Z,81.92
2022-12-18T22:12:35.688Z,81.55
2022-12-18T22:15:21.174Z,81.09
2022-12-18T22:18:00.113Z,80.81
2022-12-18T22:20:34.921Z,81.30
2022-12-18T22:23:09.487Z,82.04
2022-12-18T22:25:43.906Z,81.26
2022-12-18T22:28:35.692Z,79.85
2022-12-18T22:31:10.795Z,80.59
2022-12-18T22:33:46.408Z,81.15
2022-12-18T22:36:21.484Z,81.03
2022-12-18T22:38:57.419Z,80.34
2022-12-18T22:41:31.841Z,79.39
2022-12-18T22:44:07.206Z,81.11
2022-12-18T22:46:47.013Z,80.09
2022-12-18T22:49:28.254Z,79.94
2022-12-18T22:52:03.058Z,81.08
2022-12-18T22:54:37.324Z,81.11
2022-12-18T22:57:11.788Z,81.50
2022-12-18T22:59:46.031Z,81.82
2022-12-18T23:02:20.910Z,82.27
2022-12-18T23:04:56.557Z,83.08
2022-12-18T23:07:30.972Z,82.93
2022-12-18T23:10:06.404Z,82.79
2022-12-18T23:12:40.901Z,82.81
2022-12-18T23:15:15.200Z,82.90
2022-12-18T23:17:52.397Z,82.99
2022-12-18T23:20:28.800Z,82.69
2022-12-18T23:23:03.209Z,82.24
2022-12-18T23:25:37.298Z,82.62
2022-12-18T23:28:11.968Z,81.89
2022-12-18T23:30:46.300Z,82.46
2022-12-18T23:33:20.783Z,82.58
2022-12-18T23:36:01.200Z,82.38
2022-12-18T23:38:36.493Z,82.11
2022-12-18T23:41:12.636Z,82.74
2022-12-18T23:43:47.003Z,82.69
2022-12-18T23:46:25.170Z,83.11
2022-12-18T23:49:00.432Z,83.26
2022-12-18T23:51:36.007Z,83.11
2022-12-18T23:54:11.127Z,83.58
2022-12-18T23:56:45.201Z,83.49
2022-12-18T23:59:25.247Z,83.03
